Flight Track Log - Related Links

Times and Time Zones

All times are in EDT time to prevent confusion due to time zone crossing. See the RPA3887 flight status page for this flight to view local times or setup timezone preferences in your user account.

Time Position Orientation Groundspeed Altitude Reporting Facility
EDT Latitude Longitude Course Direction KTS MPH feet Rate Location/Type
Tue 12:13:46 PM 39.8667 -104.5667 123° Southeast 215 247 7,500  Level Denver TRACON
Tue 12:14:46 PM 39.8333 -104.5000 123° Southeast 246 283 9,700 1,250 Climbing Denver TRACON
Tue 12:15:46 PM 39.8167 -104.4000 102° East 291 335 10,000 650 Climbing Denver TRACON
Tue 12:16:46 PM 39.8000 -104.3000 102° East 291 335 11,000 1,267 Climbing Denver TRACON
Tue 12:17:16 PM 39.7972 -104.2369 93° East 292 336 11,900 1,239 Climbing Denver Center
Tue 12:18:18 PM 39.7847 -104.1239 98° East 317 365 12,900 919 Climbing Denver Center
Tue 12:19:20 PM 39.7714 -104.0053 98° East 330 380 13,800 532 Climbing Denver Center
Tue 12:20:22 PM 39.7569 -103.8778 98° East 334 384 14,000 484 Climbing Denver Center
Tue 12:21:24 PM 39.7431 -103.7581 99° East 335 386 14,800 484 Climbing Denver Center
Tue 12:22:26 PM 39.7317 -103.6322 97° East 331 381 15,000 97 Climbing Denver Center
Tue 12:23:28 PM 39.7239 -103.5119 95° East 336 387 15,000 912 Level Denver Center
Tue 12:24:31 PM 39.7119 -103.3853 97° East 345 397 16,900 960 Climbing Denver Center
Tue 12:25:33 PM 39.6994 -103.2528 97° East 334 384 17,000 48 Climbing Denver Center
Tue 12:26:35 PM 39.6761 -103.1336 104° East 364 419 17,000  Level Denver Center
Tue 12:27:37 PM 39.6322 -102.9972 113° Southeast 367 422 17,000  Level Denver Center
Tue 12:28:39 PM 39.5892 -102.8661 113° Southeast 369 425 17,000 435 Level Denver Center
Tue 12:29:41 PM 39.5544 -102.7550 112° Southeast 353 406 17,900 1,452 Climbing Denver Center
Tue 12:30:43 PM 39.5211 -102.6514 113° Southeast 318 366 20,000 2,177 Climbing Denver Center
Tue 12:31:45 PM 39.4881 -102.5461 112° Southeast 284 327 22,400 1,935 Climbing Denver Center
Tue 12:32:47 PM 39.4619 -102.4661 113° Southeast 257 296 24,000 1,258 Climbing Denver Center
Tue 12:33:49 PM 39.4306 -102.3689 113° Southeast 262 302 25,000 484 Climbing Denver Center
Tue 12:34:51 PM 39.3997 -102.2719 112° Southeast 300 345 25,000  Level Denver Center
Tue 12:35:53 PM 39.3592 -102.1492 113° Southeast 332 382 25,000  Level Denver Center
Tue 12:36:55 PM 39.3203 -102.0347 114° Southeast 347 399 25,000  Level Denver Center
Tue 12:37:57 PM 39.2850 -101.9242 112° Southeast 350 403 25,000  Level Denver Center
Tue 12:38:59 PM 39.2422 -101.7967 113° Southeast 347 399 25,000  Level Denver Center
Tue 12:40:01 PM 39.2036 -101.6772 113° Southeast 338 389 25,000  Level Denver Center
Tue 12:41:04 PM 39.1689 -101.5728 113° Southeast 333 383 25,000  Level Denver Center
Tue 12:42:06 PM 39.1275 -101.4497 113° Southeast 334 384 25,000  Level Denver Center
Tue 12:43:08 PM 39.0939 -101.3481 113° Southeast 329 379 25,000  Level Denver Center
Tue 12:44:10 PM 39.0539 -101.2283 113° Southeast 325 374 25,000  Level Denver Center
Tue 12:45:12 PM 39.0172 -101.1206 114° Southeast 326 375 25,000  Level Denver Center
Tue 12:46:14 PM 38.9831 -101.0183 113° Southeast 325 374 25,000  Level Denver Center
Tue 12:47:16 PM 38.9425 -100.9000 114° Southeast 324 373 25,000  Level Denver Center
Tue 12:48:18 PM 38.9092 -100.8025 114° Southeast 318 366 25,000  Level Denver Center
Tue 12:49:20 PM 38.8686 -100.6847 114° Southeast 320 368 25,000  Level Denver Center
Tue 12:50:22 PM 38.8344 -100.5847 114° Southeast 321 369 25,000  Level Denver Center
Tue 12:51:24 PM 38.8003 -100.4869 114° Southeast 315 362 25,000  Level Denver Center
Tue 12:52:26 PM 38.7600 -100.3700 114° Southeast 320 368 25,000  Level Denver Center
Tue 12:53:28 PM 38.7253 -100.2714 114° Southeast 319 367 25,000  Level Denver Center
Tue 12:54:30 PM 38.6853 -100.1547 114° Southeast 318 366 25,000  Level Denver Center
Tue 12:55:09 PM 38.6619 -100.0886 114° Southeast 318 366 25,000  Level Kansas City Center
Tue 12:56:11 PM 38.6269 -99.9900 114° Southeast 318 366 25,000  Level Kansas City Center
Tue 12:57:13 PM 38.5869 -99.8744 114° Southeast 318 366 25,000  Level Kansas City Center
Tue 12:58:15 PM 38.5517 -99.7772 115° Southeast 316 364 25,000  Level Kansas City Center
Tue 12:59:17 PM 38.5108 -99.6636 115° Southeast 315 362 25,000  Level Kansas City Center
Tue 01:00:19 PM 38.4767 -99.5656 114° Southeast 315 362 25,000  Level Kansas City Center
Tue 01:01:21 PM 38.4389 -99.4631 115° Southeast 313 360 25,000  Level Kansas City Center
Tue 01:02:23 PM 38.4033 -99.3619 114° Southeast 313 360 25,000  Level Kansas City Center
Tue 01:03:25 PM 38.3667 -99.2603 115° Southeast 314 361 25,000  Level Kansas City Center
Tue 01:04:27 PM 38.3300 -99.1589 115° Southeast 315 362 25,000 -435 Level Kansas City Center
Tue 01:05:29 PM 38.2856 -99.0364 115° Southeast 318 366 24,100 -1,258 Descending Kansas City Center
Tue 01:06:31 PM 38.2447 -98.9250 115° Southeast 339 390 22,400 -1,597 Descending Kansas City Center
Tue 01:07:33 PM 38.2042 -98.8100 114° Southeast 355 409 20,800 -1,645 Descending Kansas City Center
Tue 01:08:35 PM 38.1631 -98.6964 115° Southeast 355 409 19,000 -1,597 Descending Kansas City Center
Tue 01:09:37 PM 38.1203 -98.5836 116° Southeast 354 407 17,500 -1,761 Descending Kansas City Center
Tue 01:10:24 PM 38.0800 -98.4753 115° Southeast 362 417 15,800 -1,887 Descending Kansas City Center
Tue 01:11:41 PM 38.0275 -98.3314 115° Southeast 355 409 13,600 -1,727 Descending Kansas City Center
Tue 01:12:43 PM 37.9725 -98.2333 125° Southeast 321 369 11,800 -1,659 Descending Kansas City Center
Tue 01:13:44 PM 37.9292 -98.1494 123° Southeast 272 313 10,200 -1,339 Descending Kansas City Center
Tue 01:14:44 PM 37.8892 -98.0783 125° Southeast 229 264 9,100 -1,240 Descending Kansas City Center
Tue 01:15:45 PM 37.8542 -98.0172 126° Southeast 213 245 7,700 -1,172 Descending Kansas City Center
Tue 01:16:52 PM 37.8053 -97.9286 125° Southeast 260 299 6,600 -992 Descending Kansas City Center
Tue 01:17:46 PM 37.7703 -97.8628 124° Southeast 257 296 5,700 -835 Descending Kansas City Center
Tue 01:18:47 PM 37.7297 -97.7869 124° Southeast 246 283 5,000 -347 Descending Kansas City Center
Tue 01:19:47 PM 37.6869 -97.7142 127° Southeast 255 293 5,000 -149 Level Kansas City Center
Tue 01:20:48 PM 37.6464 -97.6408 125° Southeast 258 297 4,700 -492 Descending Kansas City Center
Tue 01:21:49 PM 37.6108 -97.5775 125° Southeast 212 244 4,000 -843 Descending Kansas City Center
Tue 01:22:49 PM 37.5844 -97.5208 120° Southeast 183 211 3,000 -942 Descending Kansas City Center
Tue 01:23:50 PM 37.5958 -97.4664 75° East 158 182 2,100 -787 Descending Kansas City Center
Tue 01:24:51 PM 37.6297 -97.4481 23° Northeast 112 129 1,400 -689 Descending Kansas City Center

Login

Don't have an account? Register now (free) for customized features, flight alerts, and more!